This is the latest recevied weather packets stored in our database for station/object IW1QAF-33. If no packets are shown the sender has not sent any weather packets the latest 1 day(s).
| Time | Temp. | Humidity | Pressure | Rain* | Wind** | Luminosity | Snow |
|---|---|---|---|---|---|---|---|
| 1778018194 | 15° C | 100% | 1010 hPa | 0 mm | 0.45 m/s, 180° | 0 W/m² | - |
| 1778017590 | 15° C | 100% | 1010 hPa | 0 mm | 0.45 m/s, 180° | 0 W/m² | - |
| 1778016382 | 15° C | 100% | 1010 hPa | 0 mm | 0.45 m/s, 171° | 0 W/m² | - |
| 1778015174 | 14.44° C | 100% | 1010 hPa | 0 mm | 0.45 m/s, 175° | 0 W/m² | - |
| 1778014570 | 15° C | 100% | 1010 hPa | 0 mm | 0.45 m/s, 180° | 0 W/m² | - |
| 1778013966 | 15° C | 100% | 1010 hPa | 0 mm | 0.45 m/s, 180° | 0 W/m² | - |
| 1778012155 | 15.56° C | 100% | 1010 hPa | 0 mm | 0.45 m/s, 171° | 0 W/m² | - |
| 1778011550 | 15° C | 100% | 1010 hPa | 0 mm | 0.45 m/s, 171° | 0 W/m² | - |
| 1778010947 | 15° C | 100% | 1009 hPa | 0 mm | 0.45 m/s, 143° | 0 W/m² | - |
| 1778009739 | 17.22° C | 100% | 1011 hPa | 0 mm | 0 m/s | 0 W/m² | - |
| 1778008531 | 17.22° C | 100% | 1011 hPa | 0 mm | 0 m/s | 0 W/m² | - |
| 1778007323 | 17.78° C | 100% | 1011 hPa | 0 mm | 0 m/s | 0 W/m² | - |
| 1778006719 | 16.67° C | 100% | 1010 hPa | 0 mm | 0 m/s | 0 W/m² | - |
| 1778004907 | 18.33° C | 100% | 1012 hPa | 0 mm | 0 m/s | 1 W/m² | - |
| 1778004303 | 19.44° C | 100% | 1012 hPa | 0 mm | 0 m/s | 1 W/m² | - |
| 1778002491 | 17.78° C | 100% | 1012 hPa | 0 mm | 0 m/s | 5 W/m² | - |
| 1778001887 | 17.78° C | 100% | 1012 hPa | 0 mm | 0 m/s | 4 W/m² | - |
| 1778001283 | 17.78° C | 100% | 1012 hPa | 0 mm | 0 m/s | 6 W/m² | - |
| 1778000679 | 18.33° C | 100% | 1012 hPa | 0 mm | 0.45 m/s, 306° | 7 W/m² | - |
| 1778000075 | 17.78° C | 100% | 1012 hPa | 0 mm | 0.45 m/s, 324° | 7 W/m² | - |
| 1777999471 | 17.78° C | 100% | 1012 hPa | 0 mm | 0.45 m/s, 332° | 10 W/m² | - |
| 1777998867 | 17.22° C | 100% | 1012 hPa | 0 mm | 0 m/s | 11 W/m² | - |
| 1777998263 | 17.78° C | 100% | 1012 hPa | 0 mm | 0.45 m/s, 302° | 6 W/m² | - |
| 1777997659 | 18.33° C | 100% | 1013 hPa | 0 mm | 0.45 m/s, 318° | 9 W/m² | - |
| 1777997055 | 18.33° C | 100% | 1013 hPa | 0 mm | 0.45 m/s, 274° | 12 W/m² | - |
* Rain latest hour (hover to see other rain measurements)
** Current wind speed in m/s (hover to see current wind gust speed)